sensor_id;sensor_type;location;lat;lon;timestamp;pressure;altitude;pressure_sealevel;temperature;humidity
31595;BME280;18200;48.726;8.892;2023-03-23T00:01:08;96203.78;;;26.56;26.19
31595;BME280;18200;48.726;8.892;2023-03-23T00:05:19;96203.41;;;26.63;26.29
31595;BME280;18200;48.726;8.892;2023-03-23T00:09:19;96210.03;;;26.42;26.04
31595;BME280;18200;48.726;8.892;2023-03-23T00:13:25;96196.47;;;26.53;26.29
31595;BME280;18200;48.726;8.892;2023-03-23T00:17:27;96189.94;;;26.79;26.19
31595;BME280;18200;48.726;8.892;2023-03-23T00:21:31;96188.41;;;26.64;26.20
31595;BME280;18200;48.726;8.892;2023-03-23T00:25:35;96182.41;;;26.51;26.67
31595;BME280;18200;48.726;8.892;2023-03-23T00:29:36;96184.38;;;26.36;26.53
31595;BME280;18200;48.726;8.892;2023-03-23T00:33:37;96176.41;;;26.38;26.74
31595;BME280;18200;48.726;8.892;2023-03-23T00:37:43;96174.34;;;26.62;26.51
31595;BME280;18200;48.726;8.892;2023-03-23T00:41:45;96165.97;;;26.71;26.18
31595;BME280;18200;48.726;8.892;2023-03-23T00:45:46;96149.16;;;26.69;26.10
31595;BME280;18200;48.726;8.892;2023-03-23T00:49:52;96144.78;;;27.06;25.39
31595;BME280;18200;48.726;8.892;2023-03-23T00:53:55;96152.50;;;27.02;25.53
31595;BME280;18200;48.726;8.892;2023-03-23T00:57:56;96143.50;;;27.36;25.21
31595;BME280;18200;48.726;8.892;2023-03-23T01:01:57;96148.28;;;27.21;25.42
31595;BME280;18200;48.726;8.892;2023-03-23T01:05:57;96139.31;;;27.26;25.36
31595;BME280;18200;48.726;8.892;2023-03-23T01:09:57;96151.13;;;27.12;25.22
31595;BME280;18200;48.726;8.892;2023-03-23T01:14:00;96146.41;;;26.98;25.96
31595;BME280;18200;48.726;8.892;2023-03-23T01:18:02;96138.91;;;27.33;25.20
31595;BME280;18200;48.726;8.892;2023-03-23T01:22:03;96130.44;;;27.02;25.37
31595;BME280;18200;48.726;8.892;2023-03-23T01:26:23;96127.88;;;27.33;25.48
31595;BME280;18200;48.726;8.892;2023-03-23T01:30:25;96124.69;;;27.20;25.83
31595;BME280;18200;48.726;8.892;2023-03-23T01:34:26;96124.84;;;27.31;25.41
31595;BME280;18200;48.726;8.892;2023-03-23T01:38:26;96111.88;;;27.03;25.68
31595;BME280;18200;48.726;8.892;2023-03-23T01:42:32;96106.72;;;27.10;25.55
31595;BME280;18200;48.726;8.892;2023-03-23T01:46:35;96101.22;;;27.10;25.63
31595;BME280;18200;48.726;8.892;2023-03-23T01:50:45;96095.81;;;27.01;25.64
31595;BME280;18200;48.726;8.892;2023-03-23T01:54:48;96111.44;;;27.24;25.38
31595;BME280;18200;48.726;8.892;2023-03-23T01:58:50;96100.16;;;27.08;25.67
31595;BME280;18200;48.726;8.892;2023-03-23T02:02:52;96106.59;;;26.70;25.69
31595;BME280;18200;48.726;8.892;2023-03-23T02:06:56;96103.84;;;26.70;25.91
31595;BME280;18200;48.726;8.892;2023-03-23T02:11:00;96102.41;;;26.45;26.08
31595;BME280;18200;48.726;8.892;2023-03-23T02:15:02;96096.44;;;26.61;25.83
31595;BME280;18200;48.726;8.892;2023-03-23T02:19:31;96098.31;;;26.70;25.80
31595;BME280;18200;48.726;8.892;2023-03-23T02:33:36;96065.66;;;26.48;26.09
31595;BME280;18200;48.726;8.892;2023-03-23T02:37:45;96063.38;;;26.47;26.29
31595;BME280;18200;48.726;8.892;2023-03-23T02:42:01;96061.06;;;26.45;26.42
31595;BME280;18200;48.726;8.892;2023-03-23T02:46:05;96054.06;;;26.30;27.18
31595;BME280;18200;48.726;8.892;2023-03-23T02:50:10;96048.00;;;26.40;26.59
31595;BME280;18200;48.726;8.892;2023-03-23T02:54:13;96044.75;;;26.42;26.72
31595;BME280;18200;48.726;8.892;2023-03-23T02:58:15;96045.88;;;26.35;27.15
31595;BME280;18200;48.726;8.892;2023-03-23T03:02:21;96036.59;;;26.33;27.23
31595;BME280;18200;48.726;8.892;2023-03-23T03:06:54;96042.59;;;26.17;27.48
31595;BME280;18200;48.726;8.892;2023-03-23T03:11:18;96035.09;;;26.17;27.20
31595;BME280;18200;48.726;8.892;2023-03-23T03:19:45;96045.13;;;26.35;27.23
31595;BME280;18200;48.726;8.892;2023-03-23T03:23:48;96041.53;;;26.14;27.39
31595;BME280;18200;48.726;8.892;2023-03-23T03:27:49;96034.47;;;25.98;27.75
31595;BME280;18200;48.726;8.892;2023-03-23T03:32:02;96030.06;;;25.77;27.75
31595;BME280;18200;48.726;8.892;2023-03-23T03:36:06;96032.78;;;26.30;27.23
31595;BME280;18200;48.726;8.892;2023-03-23T03:40:15;96043.06;;;26.30;26.63
31595;BME280;18200;48.726;8.892;2023-03-23T03:44:16;96027.09;;;26.04;27.04
31595;BME280;18200;48.726;8.892;2023-03-23T03:48:16;96031.56;;;26.17;27.41
31595;BME280;18200;48.726;8.892;2023-03-23T03:52:17;96029.47;;;26.26;27.12
31595;BME280;18200;48.726;8.892;2023-03-23T03:56:17;96025.75;;;26.44;27.03
31595;BME280;18200;48.726;8.892;2023-03-23T04:00:26;96018.31;;;26.50;27.10
31595;BME280;18200;48.726;8.892;2023-03-23T04:04:26;96023.44;;;26.57;27.15
31595;BME280;18200;48.726;8.892;2023-03-23T04:08:27;96044.75;;;26.27;27.59
31595;BME280;18200;48.726;8.892;2023-03-23T04:12:28;96029.91;;;26.54;26.57
31595;BME280;18200;48.726;8.892;2023-03-23T04:16:31;96030.69;;;26.40;26.60
31595;BME280;18200;48.726;8.892;2023-03-23T04:20:34;96024.81;;;26.47;26.99
31595;BME280;18200;48.726;8.892;2023-03-23T04:24:35;96031.25;;;26.44;26.84
31595;BME280;18200;48.726;8.892;2023-03-23T04:28:39;96024.81;;;26.17;27.18
31595;BME280;18200;48.726;8.892;2023-03-23T04:33:16;96015.66;;;26.41;27.18
31595;BME280;18200;48.726;8.892;2023-03-23T04:37:21;96017.75;;;26.46;27.10
31595;BME280;18200;48.726;8.892;2023-03-23T04:41:26;96016.81;;;26.49;26.73
31595;BME280;18200;48.726;8.892;2023-03-23T04:45:57;96021.50;;;26.43;26.92
31595;BME280;18200;48.726;8.892;2023-03-23T04:50:00;96027.84;;;26.49;27.03
31595;BME280;18200;48.726;8.892;2023-03-23T04:54:08;96030.50;;;26.29;27.00
31595;BME280;18200;48.726;8.892;2023-03-23T04:58:10;96029.34;;;26.79;26.51
31595;BME280;18200;48.726;8.892;2023-03-23T05:02:18;96030.06;;;26.79;26.40
31595;BME280;18200;48.726;8.892;2023-03-23T05:06:20;96028.41;;;26.53;26.74
31595;BME280;18200;48.726;8.892;2023-03-23T05:10:23;96021.75;;;26.59;26.85
31595;BME280;18200;48.726;8.892;2023-03-23T05:14:26;96016.06;;;26.48;27.13
31595;BME280;18200;48.726;8.892;2023-03-23T05:18:36;96028.03;;;26.60;27.20
31595;BME280;18200;48.726;8.892;2023-03-23T05:22:43;96014.38;;;26.36;27.75
31595;BME280;18200;48.726;8.892;2023-03-23T05:26:45;96020.41;;;26.55;27.31
31595;BME280;18200;48.726;8.892;2023-03-23T05:30:53;96019.25;;;26.76;26.87
31595;BME280;18200;48.726;8.892;2023-03-23T05:34:55;96017.72;;;26.75;26.55
31595;BME280;18200;48.726;8.892;2023-03-23T05:38:57;96027.59;;;26.67;26.38
31595;BME280;18200;48.726;8.892;2023-03-23T05:43:01;96022.63;;;27.00;26.41
31595;BME280;18200;48.726;8.892;2023-03-23T05:47:13;96032.56;;;26.63;26.97
31595;BME280;18200;48.726;8.892;2023-03-23T05:51:19;96036.28;;;26.60;27.48
31595;BME280;18200;48.726;8.892;2023-03-23T05:55:20;96030.69;;;27.24;25.86
31595;BME280;18200;48.726;8.892;2023-03-23T05:59:28;96040.41;;;27.19;26.20
31595;BME280;18200;48.726;8.892;2023-03-23T06:03:31;96046.88;;;27.16;25.92
31595;BME280;18200;48.726;8.892;2023-03-23T06:07:40;96050.47;;;27.22;26.28
31595;BME280;18200;48.726;8.892;2023-03-23T06:11:40;96049.81;;;27.47;25.40
31595;BME280;18200;48.726;8.892;2023-03-23T06:16:03;96059.44;;;27.17;26.07
31595;BME280;18200;48.726;8.892;2023-03-23T06:20:25;96074.22;;;27.34;25.89
31595;BME280;18200;48.726;8.892;2023-03-23T06:24:27;96070.25;;;27.35;25.52
31595;BME280;18200;48.726;8.892;2023-03-23T06:28:28;96083.41;;;27.11;27.07
31595;BME280;18200;48.726;8.892;2023-03-23T06:32:30;96079.34;;;27.41;25.84
31595;BME280;18200;48.726;8.892;2023-03-23T06:36:31;96079.75;;;27.34;26.72
31595;BME280;18200;48.726;8.892;2023-03-23T06:40:44;96088.78;;;27.00;28.03
31595;BME280;18200;48.726;8.892;2023-03-23T06:44:47;96090.25;;;27.71;26.32
31595;BME280;18200;48.726;8.892;2023-03-23T06:48:48;96091.75;;;27.92;26.12
31595;BME280;18200;48.726;8.892;2023-03-23T06:52:53;96106.53;;;27.68;27.37
31595;BME280;18200;48.726;8.892;2023-03-23T06:56:54;96108.63;;;27.53;26.39
31595;BME280;18200;48.726;8.892;2023-03-23T07:00:55;96107.50;;;27.45;26.15
31595;BME280;18200;48.726;8.892;2023-03-23T07:05:12;96101.97;;;27.45;26.39
31595;BME280;18200;48.726;8.892;2023-03-23T07:09:14;96106.44;;;27.08;26.94
31595;BME280;18200;48.726;8.892;2023-03-23T07:13:15;96117.94;;;27.21;27.44
31595;BME280;18200;48.726;8.892;2023-03-23T07:17:23;96133.84;;;27.66;26.65
31595;BME280;18200;48.726;8.892;2023-03-23T07:21:36;96130.97;;;27.76;26.58
31595;BME280;18200;48.726;8.892;2023-03-23T07:25:37;96139.81;;;27.59;26.09
31595;BME280;18200;48.726;8.892;2023-03-23T07:29:38;96156.41;;;27.30;26.87
31595;BME280;18200;48.726;8.892;2023-03-23T07:33:47;96164.25;;;27.87;26.27
31595;BME280;18200;48.726;8.892;2023-03-23T07:37:48;96164.53;;;25.37;29.86
31595;BME280;18200;48.726;8.892;2023-03-23T07:41:50;96157.34;;;26.78;28.28
31595;BME280;18200;48.726;8.892;2023-03-23T07:46:03;96142.41;;;28.29;26.45
31595;BME280;18200;48.726;8.892;2023-03-23T07:50:13;96145.47;;;28.11;26.75
31595;BME280;18200;48.726;8.892;2023-03-23T07:54:16;96151.09;;;28.22;26.51
31595;BME280;18200;48.726;8.892;2023-03-23T07:58:39;96159.97;;;26.58;29.59
31595;BME280;18200;48.726;8.892;2023-03-23T08:02:39;96168.44;;;26.01;31.01
31595;BME280;18200;48.726;8.892;2023-03-23T08:07:07;96159.91;;;26.52;30.57
31595;BME280;18200;48.726;8.892;2023-03-23T08:11:20;96161.56;;;26.21;30.65
31595;BME280;18200;48.726;8.892;2023-03-23T08:15:41;96164.06;;;26.48;30.89
31595;BME280;18200;48.726;8.892;2023-03-23T08:19:52;96168.72;;;25.56;32.33
31595;BME280;18200;48.726;8.892;2023-03-23T08:24:11;96175.41;;;25.64;32.11
31595;BME280;18200;48.726;8.892;2023-03-23T08:28:29;96172.94;;;26.13;31.51
31595;BME280;18200;48.726;8.892;2023-03-23T08:33:02;96174.41;;;25.53;32.29
31595;BME280;18200;48.726;8.892;2023-03-23T08:37:22;96195.06;;;26.43;31.06
31595;BME280;18200;48.726;8.892;2023-03-23T08:41:30;96201.69;;;24.82;33.66
31595;BME280;18200;48.726;8.892;2023-03-23T08:45:54;96205.56;;;26.06;32.27
31595;BME280;18200;48.726;8.892;2023-03-23T08:50:21;96199.41;;;26.11;32.29
31595;BME280;18200;48.726;8.892;2023-03-23T08:54:43;96196.84;;;28.23;28.98
31595;BME280;18200;48.726;8.892;2023-03-23T08:59:22;96200.75;;;27.41;29.97
31595;BME280;18200;48.726;8.892;2023-03-23T09:03:49;96201.88;;;28.45;28.84
31595;BME280;18200;48.726;8.892;2023-03-23T09:07:57;96216.09;;;26.84;31.10
31595;BME280;18200;48.726;8.892;2023-03-23T09:11:59;96214.13;;;26.46;31.38
31595;BME280;18200;48.726;8.892;2023-03-23T09:16:00;96219.03;;;28.54;28.41
31595;BME280;18200;48.726;8.892;2023-03-23T09:20:00;96219.03;;;27.74;30.21
31595;BME280;18200;48.726;8.892;2023-03-23T09:24:01;96223.88;;;27.79;29.90
31595;BME280;18200;48.726;8.892;2023-03-23T09:28:02;96244.63;;;28.29;28.42
31595;BME280;18200;48.726;8.892;2023-03-23T09:32:02;96235.00;;;27.49;29.71
31595;BME280;18200;48.726;8.892;2023-03-23T09:36:03;96250.19;;;26.72;31.10
31595;BME280;18200;48.726;8.892;2023-03-23T09:40:09;96248.00;;;25.67;32.98
31595;BME280;18200;48.726;8.892;2023-03-23T09:44:32;96262.50;;;26.00;32.35
31595;BME280;18200;48.726;8.892;2023-03-23T09:48:56;96260.03;;;24.67;34.83
31595;BME280;18200;48.726;8.892;2023-03-23T09:57:28;96256.56;;;25.92;32.72
31595;BME280;18200;48.726;8.892;2023-03-23T10:01:32;96260.91;;;26.17;33.08
31595;BME280;18200;48.726;8.892;2023-03-23T10:06:00;96245.28;;;25.16;34.94
31595;BME280;18200;48.726;8.892;2023-03-23T10:10:01;96242.31;;;24.68;35.41
31595;BME280;18200;48.726;8.892;2023-03-23T10:14:38;96251.91;;;24.64;35.74
31595;BME280;18200;48.726;8.892;2023-03-23T10:18:43;96252.09;;;24.33;35.98
31595;BME280;18200;48.726;8.892;2023-03-23T10:22:54;96255.00;;;25.77;33.52
31595;BME280;18200;48.726;8.892;2023-03-23T10:31:27;96246.91;;;27.76;31.01
31595;BME280;18200;48.726;8.892;2023-03-23T10:35:41;96261.91;;;26.43;33.43
31595;BME280;18200;48.726;8.892;2023-03-23T10:40:04;96258.81;;;28.16;30.48
31595;BME280;18200;48.726;8.892;2023-03-23T10:44:20;96251.13;;;28.66;29.68
31595;BME280;18200;48.726;8.892;2023-03-23T10:48:33;96273.19;;;26.31;32.67
31595;BME280;18200;48.726;8.892;2023-03-23T10:52:38;96281.59;;;25.29;34.36
31595;BME280;18200;48.726;8.892;2023-03-23T10:56:42;96267.03;;;26.12;32.76
31595;BME280;18200;48.726;8.892;2023-03-23T11:00:46;96258.94;;;27.73;31.38
31595;BME280;18200;48.726;8.892;2023-03-23T11:05:00;96257.31;;;26.26;32.54
31595;BME280;18200;48.726;8.892;2023-03-23T11:09:09;96239.81;;;28.04;29.89
31595;BME280;18200;48.726;8.892;2023-03-23T11:13:14;96258.03;;;26.88;31.75
31595;BME280;18200;48.726;8.892;2023-03-23T11:17:25;96263.69;;;26.70;32.52
31595;BME280;18200;48.726;8.892;2023-03-23T11:21:27;96249.88;;;27.37;31.41
31595;BME280;18200;48.726;8.892;2023-03-23T11:25:28;96241.84;;;27.54;31.20
31595;BME280;18200;48.726;8.892;2023-03-23T11:29:29;96249.16;;;27.57;31.17
31595;BME280;18200;48.726;8.892;2023-03-23T11:33:37;96244.31;;;28.87;29.47
31595;BME280;18200;48.726;8.892;2023-03-23T11:37:43;96238.91;;;27.78;30.98
31595;BME280;18200;48.726;8.892;2023-03-23T11:41:45;96229.50;;;26.91;31.52
31595;BME280;18200;48.726;8.892;2023-03-23T11:50:25;96246.63;;;26.80;31.78
31595;BME280;18200;48.726;8.892;2023-03-23T11:54:33;96233.31;;;28.07;29.61
31595;BME280;18200;48.726;8.892;2023-03-23T11:58:34;96238.16;;;28.12;29.08
31595;BME280;18200;48.726;8.892;2023-03-23T12:12:01;96237.09;;;27.25;30.05
31595;BME280;18200;48.726;8.892;2023-03-23T12:16:17;96239.19;;;27.16;31.14
31595;BME280;18200;48.726;8.892;2023-03-23T12:33:33;96242.53;;;27.34;29.82
31595;BME280;18200;48.726;8.892;2023-03-23T12:38:00;96226.72;;;26.24;32.06
31595;BME280;18200;48.726;8.892;2023-03-23T12:42:29;96211.75;;;28.31;29.09
31595;BME280;18200;48.726;8.892;2023-03-23T12:46:59;96209.69;;;26.49;31.71
31595;BME280;18200;48.726;8.892;2023-03-23T12:51:09;96205.75;;;29.35;27.65
31595;BME280;18200;48.726;8.892;2023-03-23T12:55:39;96203.00;;;27.57;30.26
31595;BME280;18200;48.726;8.892;2023-03-23T12:59:53;96197.06;;;29.17;27.78
31595;BME280;18200;48.726;8.892;2023-03-23T13:03:59;96210.19;;;26.62;31.61
31595;BME280;18200;48.726;8.892;2023-03-23T13:08:04;96190.88;;;27.70;29.94
31595;BME280;18200;48.726;8.892;2023-03-23T13:12:08;96178.28;;;28.03;28.96
31595;BME280;18200;48.726;8.892;2023-03-23T13:25:00;96171.59;;;27.55;30.43
31595;BME280;18200;48.726;8.892;2023-03-23T13:29:10;96165.09;;;28.59;28.80
31595;BME280;18200;48.726;8.892;2023-03-23T13:33:14;96160.75;;;29.09;28.46
31595;BME280;18200;48.726;8.892;2023-03-23T13:41:20;96158.50;;;28.56;28.78
31595;BME280;18200;48.726;8.892;2023-03-23T13:45:23;96155.53;;;27.53;29.58
31595;BME280;18200;48.726;8.892;2023-03-23T13:49:24;96153.22;;;29.41;27.16
31595;BME280;18200;48.726;8.892;2023-03-23T13:53:42;96152.19;;;29.75;26.59
31595;BME280;18200;48.726;8.892;2023-03-23T13:57:52;96145.06;;;30.27;26.17
31595;BME280;18200;48.726;8.892;2023-03-23T14:06:37;96127.59;;;29.14;27.50
31595;BME280;18200;48.726;8.892;2023-03-23T14:10:53;96121.41;;;30.37;25.87
31595;BME280;18200;48.726;8.892;2023-03-23T14:14:59;96127.28;;;29.86;26.71
31595;BME280;18200;48.726;8.892;2023-03-23T14:19:18;96126.91;;;29.20;28.05
31595;BME280;18200;48.726;8.892;2023-03-23T14:23:19;96117.41;;;30.49;25.98
31595;BME280;18200;48.726;8.892;2023-03-23T14:27:22;96111.28;;;30.23;26.51
31595;BME280;18200;48.726;8.892;2023-03-23T14:31:27;96106.84;;;31.20;25.29
31595;BME280;18200;48.726;8.892;2023-03-23T14:35:32;96105.50;;;29.20;26.66
31595;BME280;18200;48.726;8.892;2023-03-23T14:39:34;96107.69;;;29.10;27.34
31595;BME280;18200;48.726;8.892;2023-03-23T14:43:35;96108.88;;;30.92;24.56
31595;BME280;18200;48.726;8.892;2023-03-23T14:47:40;96111.63;;;29.30;26.32
31595;BME280;18200;48.726;8.892;2023-03-23T14:51:51;96113.03;;;30.15;25.21
31595;BME280;18200;48.726;8.892;2023-03-23T14:55:53;96111.91;;;29.00;26.31
31595;BME280;18200;48.726;8.892;2023-03-23T14:59:56;96105.34;;;29.35;25.56
31595;BME280;18200;48.726;8.892;2023-03-23T15:04:18;96108.31;;;31.32;24.08
31595;BME280;18200;48.726;8.892;2023-03-23T15:08:24;96126.44;;;27.73;27.69
31595;BME280;18200;48.726;8.892;2023-03-23T15:12:34;96117.19;;;29.35;25.46
31595;BME280;18200;48.726;8.892;2023-03-23T15:16:35;96125.56;;;28.27;26.97
31595;BME280;18200;48.726;8.892;2023-03-23T15:24:43;96125.63;;;30.16;24.63
31595;BME280;18200;48.726;8.892;2023-03-23T15:28:44;96118.56;;;27.65;27.19
31595;BME280;18200;48.726;8.892;2023-03-23T15:32:45;96117.88;;;28.93;25.56
31595;BME280;18200;48.726;8.892;2023-03-23T15:36:45;96116.66;;;30.60;23.79
31595;BME280;18200;48.726;8.892;2023-03-23T15:40:49;96129.41;;;27.34;26.93
31595;BME280;18200;48.726;8.892;2023-03-23T15:45:22;96114.03;;;30.12;24.23
31595;BME280;18200;48.726;8.892;2023-03-23T15:49:24;96116.91;;;29.28;25.21
31595;BME280;18200;48.726;8.892;2023-03-23T15:53:33;96119.34;;;28.89;25.25
31595;BME280;18200;48.726;8.892;2023-03-23T15:57:35;96114.09;;;29.70;24.32
31595;BME280;18200;48.726;8.892;2023-03-23T16:01:37;96116.75;;;30.01;23.78
31595;BME280;18200;48.726;8.892;2023-03-23T16:05:38;96119.38;;;29.68;24.50
31595;BME280;18200;48.726;8.892;2023-03-23T16:09:39;96116.00;;;28.79;25.80
31595;BME280;18200;48.726;8.892;2023-03-23T16:13:44;96116.72;;;29.90;24.52
31595;BME280;18200;48.726;8.892;2023-03-23T16:17:45;96120.22;;;29.00;25.36
31595;BME280;18200;48.726;8.892;2023-03-23T16:21:48;96119.22;;;29.40;25.40
31595;BME280;18200;48.726;8.892;2023-03-23T16:25:48;96142.59;;;27.10;27.16
31595;BME280;18200;48.726;8.892;2023-03-23T16:29:49;96126.50;;;28.24;27.48
31595;BME280;18200;48.726;8.892;2023-03-23T16:33:49;96121.53;;;28.79;26.24
31595;BME280;18200;48.726;8.892;2023-03-23T16:37:52;96135.78;;;29.35;25.82
31595;BME280;18200;48.726;8.892;2023-03-23T16:41:53;96131.34;;;29.43;24.72
31595;BME280;18200;48.726;8.892;2023-03-23T16:45:54;96127.66;;;28.58;25.96
31595;BME280;18200;48.726;8.892;2023-03-23T16:49:55;96139.56;;;29.74;24.58
31595;BME280;18200;48.726;8.892;2023-03-23T16:53:55;96124.06;;;29.51;24.56
31595;BME280;18200;48.726;8.892;2023-03-23T16:57:56;96124.59;;;29.55;25.29
31595;BME280;18200;48.726;8.892;2023-03-23T17:01:57;96127.25;;;29.75;24.74
31595;BME280;18200;48.726;8.892;2023-03-23T17:06:02;96130.47;;;29.26;25.05
31595;BME280;18200;48.726;8.892;2023-03-23T17:10:04;96110.56;;;28.90;25.19
31595;BME280;18200;48.726;8.892;2023-03-23T17:14:05;96117.88;;;28.11;26.23
31595;BME280;18200;48.726;8.892;2023-03-23T17:18:06;96113.00;;;27.86;26.92
31595;BME280;18200;48.726;8.892;2023-03-23T17:22:07;96131.53;;;27.59;27.65
31595;BME280;18200;48.726;8.892;2023-03-23T17:26:07;96128.50;;;27.57;27.66
31595;BME280;18200;48.726;8.892;2023-03-23T17:30:08;96116.41;;;27.95;27.27
31595;BME280;18200;48.726;8.892;2023-03-23T17:34:09;96115.88;;;28.63;26.07
31595;BME280;18200;48.726;8.892;2023-03-23T17:38:09;96116.25;;;27.84;27.51
31595;BME280;18200;48.726;8.892;2023-03-23T17:42:10;96107.66;;;28.74;26.18
31595;BME280;18200;48.726;8.892;2023-03-23T17:46:10;96111.22;;;27.62;27.98
31595;BME280;18200;48.726;8.892;2023-03-23T17:50:11;96102.38;;;28.19;27.00
31595;BME280;18200;48.726;8.892;2023-03-23T17:54:12;96109.97;;;27.43;28.09
31595;BME280;18200;48.726;8.892;2023-03-23T17:58:12;96106.25;;;28.07;27.22
31595;BME280;18200;48.726;8.892;2023-03-23T18:02:12;96112.13;;;28.14;26.96
31595;BME280;18200;48.726;8.892;2023-03-23T18:06:13;96105.84;;;27.74;27.47
31595;BME280;18200;48.726;8.892;2023-03-23T18:10:14;96107.22;;;28.04;26.99
31595;BME280;18200;48.726;8.892;2023-03-23T18:14:15;96115.03;;;27.30;28.43
31595;BME280;18200;48.726;8.892;2023-03-23T18:18:15;96119.03;;;26.65;29.11
31595;BME280;18200;48.726;8.892;2023-03-23T18:22:16;96114.69;;;27.57;27.79
31595;BME280;18200;48.726;8.892;2023-03-23T18:26:16;96112.94;;;27.60;27.76
31595;BME280;18200;48.726;8.892;2023-03-23T18:30:16;96104.13;;;27.21;28.58
31595;BME280;18200;48.726;8.892;2023-03-23T18:34:17;96113.03;;;27.31;27.87
31595;BME280;18200;48.726;8.892;2023-03-23T18:38:17;96109.34;;;27.54;28.03
31595;BME280;18200;48.726;8.892;2023-03-23T18:42:18;96118.97;;;27.79;27.83
31595;BME280;18200;48.726;8.892;2023-03-23T18:46:18;96114.81;;;27.68;27.83
31595;BME280;18200;48.726;8.892;2023-03-23T18:50:19;96117.56;;;27.89;27.26
31595;BME280;18200;48.726;8.892;2023-03-23T18:54:20;96114.81;;;28.09;27.60
31595;BME280;18200;48.726;8.892;2023-03-23T18:58:20;96130.63;;;27.68;28.24
31595;BME280;18200;48.726;8.892;2023-03-23T19:02:20;96127.25;;;27.99;27.62
31595;BME280;18200;48.726;8.892;2023-03-23T19:06:23;96136.44;;;27.70;28.07
31595;BME280;18200;48.726;8.892;2023-03-23T19:10:26;96137.59;;;27.63;28.11
31595;BME280;18200;48.726;8.892;2023-03-23T19:14:26;96143.09;;;27.43;29.06
31595;BME280;18200;48.726;8.892;2023-03-23T19:18:27;96137.19;;;27.91;28.18
31595;BME280;18200;48.726;8.892;2023-03-23T19:22:27;96139.38;;;27.66;28.63
31595;BME280;18200;48.726;8.892;2023-03-23T19:26:37;96140.63;;;27.65;28.58
31595;BME280;18200;48.726;8.892;2023-03-23T19:30:46;96143.28;;;27.75;28.38
31595;BME280;18200;48.726;8.892;2023-03-23T19:34:46;96145.84;;;27.43;29.26
31595;BME280;18200;48.726;8.892;2023-03-23T19:38:47;96143.13;;;28.04;28.24
31595;BME280;18200;48.726;8.892;2023-03-23T19:42:48;96136.09;;;28.03;27.98
31595;BME280;18200;48.726;8.892;2023-03-23T19:46:48;96133.38;;;27.88;28.63
31595;BME280;18200;48.726;8.892;2023-03-23T19:50:50;96124.59;;;28.30;28.05
31595;BME280;18200;48.726;8.892;2023-03-23T19:54:52;96123.72;;;28.44;27.69
31595;BME280;18200;48.726;8.892;2023-03-23T19:58:53;96121.09;;;28.09;28.61
31595;BME280;18200;48.726;8.892;2023-03-23T20:02:53;96119.16;;;28.41;27.47
31595;BME280;18200;48.726;8.892;2023-03-23T20:06:54;96118.34;;;28.35;27.82
31595;BME280;18200;48.726;8.892;2023-03-23T20:11:08;96105.34;;;27.95;28.47
31595;BME280;18200;48.726;8.892;2023-03-23T20:15:08;96101.84;;;27.75;28.97
31595;BME280;18200;48.726;8.892;2023-03-23T20:19:09;96103.16;;;27.24;29.33
31595;BME280;18200;48.726;8.892;2023-03-23T20:23:09;96101.09;;;28.20;28.40
31595;BME280;18200;48.726;8.892;2023-03-23T20:27:10;96095.84;;;28.48;28.04
31595;BME280;18200;48.726;8.892;2023-03-23T20:31:12;96093.91;;;28.54;27.55
31595;BME280;18200;48.726;8.892;2023-03-23T20:35:13;96096.06;;;28.70;27.61
31595;BME280;18200;48.726;8.892;2023-03-23T20:39:16;96096.50;;;28.63;27.63
31595;BME280;18200;48.726;8.892;2023-03-23T20:43:23;96099.09;;;28.46;27.94
31595;BME280;18200;48.726;8.892;2023-03-23T20:47:28;96105.25;;;28.56;27.82
31595;BME280;18200;48.726;8.892;2023-03-23T20:51:28;96088.59;;;28.50;27.89
31595;BME280;18200;48.726;8.892;2023-03-23T20:55:29;96100.09;;;28.17;29.07
31595;BME280;18200;48.726;8.892;2023-03-23T20:59:29;96089.75;;;28.38;28.25
31595;BME280;18200;48.726;8.892;2023-03-23T21:03:35;96091.97;;;28.34;27.77
31595;BME280;18200;48.726;8.892;2023-03-23T21:07:37;96090.25;;;28.62;28.08
31595;BME280;18200;48.726;8.892;2023-03-23T21:11:38;96085.97;;;28.41;28.34
31595;BME280;18200;48.726;8.892;2023-03-23T21:15:39;96084.53;;;28.46;28.39
31595;BME280;18200;48.726;8.892;2023-03-23T21:19:40;96077.66;;;28.61;28.05
31595;BME280;18200;48.726;8.892;2023-03-23T21:23:40;96072.91;;;28.36;27.87
31595;BME280;18200;48.726;8.892;2023-03-23T21:27:45;96079.84;;;28.00;28.98
31595;BME280;18200;48.726;8.892;2023-03-23T21:31:46;96063.88;;;28.15;28.61
31595;BME280;18200;48.726;8.892;2023-03-23T21:35:46;96050.66;;;28.51;28.11
31595;BME280;18200;48.726;8.892;2023-03-23T21:39:46;96042.00;;;28.37;28.73
31595;BME280;18200;48.726;8.892;2023-03-23T21:43:47;96046.19;;;27.82;29.66
31595;BME280;18200;48.726;8.892;2023-03-23T21:47:49;96039.44;;;27.83;29.75
31595;BME280;18200;48.726;8.892;2023-03-23T21:51:56;96037.50;;;27.68;30.57
31595;BME280;18200;48.726;8.892;2023-03-23T21:55:56;96021.47;;;27.93;30.12
31595;BME280;18200;48.726;8.892;2023-03-23T21:59:57;96010.69;;;27.95;29.79
31595;BME280;18200;48.726;8.892;2023-03-23T22:03:58;96008.94;;;27.72;30.37
31595;BME280;18200;48.726;8.892;2023-03-23T22:07:58;96006.34;;;27.02;31.33
31595;BME280;18200;48.726;8.892;2023-03-23T22:12:00;95990.63;;;27.48;30.54
31595;BME280;18200;48.726;8.892;2023-03-23T22:16:01;95975.41;;;27.13;31.10
31595;BME280;18200;48.726;8.892;2023-03-23T22:20:04;95957.88;;;26.61;31.56
31595;BME280;18200;48.726;8.892;2023-03-23T22:24:05;95953.81;;;26.91;31.87
31595;BME280;18200;48.726;8.892;2023-03-23T22:28:05;95952.25;;;26.70;31.87
31595;BME280;18200;48.726;8.892;2023-03-23T22:32:06;95956.31;;;26.40;32.93
31595;BME280;18200;48.726;8.892;2023-03-23T22:36:06;95961.94;;;27.00;32.08
31595;BME280;18200;48.726;8.892;2023-03-23T22:40:07;95958.34;;;27.34;31.00
31595;BME280;18200;48.726;8.892;2023-03-23T22:44:13;95946.47;;;27.48;30.62
31595;BME280;18200;48.726;8.892;2023-03-23T22:48:13;95938.91;;;27.43;31.34
31595;BME280;18200;48.726;8.892;2023-03-23T22:52:14;95948.44;;;27.02;31.53